createdAt,value
2019-03-10T00:00:49.143Z,10.53
2019-03-10T00:01:49.333Z,10.47
2019-03-10T00:02:49.280Z,10.43
2019-03-10T00:03:49.302Z,10.37
2019-03-10T00:04:49.321Z,10.34
2019-03-10T00:05:49.365Z,10.26
2019-03-10T00:06:49.430Z,10.28
2019-03-10T00:07:49.468Z,10.24
2019-03-10T00:08:49.530Z,10.15
2019-03-10T00:09:49.550Z,10.12
2019-03-10T00:10:49.598Z,10.19
2019-03-10T00:11:49.643Z,10.15
2019-03-10T00:12:49.694Z,10.10
2019-03-10T00:13:49.760Z,10.18
2019-03-10T00:14:49.786Z,10.10
2019-03-10T00:15:49.831Z,10.21
2019-03-10T00:16:49.877Z,10.14
2019-03-10T00:17:49.913Z,10.22
2019-03-10T00:18:49.987Z,10.24
2019-03-10T00:19:50.023Z,10.26
2019-03-10T00:20:50.067Z,10.26
2019-03-10T00:21:50.099Z,10.36
2019-03-10T00:22:50.143Z,10.53
2019-03-10T00:23:50.214Z,10.47
2019-03-10T00:24:50.362Z,10.55
2019-03-10T00:25:50.285Z,10.56
2019-03-10T00:26:50.330Z,10.63
2019-03-10T00:27:50.377Z,10.66
2019-03-10T00:28:50.468Z,10.68
2019-03-10T00:29:50.474Z,10.63
2019-03-10T00:30:50.520Z,10.66
2019-03-10T00:31:50.572Z,10.66
2019-03-10T00:32:50.620Z,10.68
2019-03-10T00:33:50.673Z,10.66
2019-03-10T00:34:50.707Z,10.65
2019-03-10T00:35:50.751Z,10.68
2019-03-10T00:36:50.787Z,10.63
2019-03-10T00:37:50.831Z,10.74
2019-03-10T00:38:50.878Z,10.86
2019-03-10T00:39:50.955Z,10.98
2019-03-10T00:40:50.971Z,11.01
2019-03-10T00:41:51.017Z,11.09
2019-03-10T00:42:51.070Z,11.13
2019-03-10T00:43:51.108Z,11.14
2019-03-10T00:44:51.199Z,11.24
2019-03-10T00:45:51.203Z,11.27
2019-03-10T00:46:51.243Z,11.32
2019-03-10T00:47:51.290Z,11.29
2019-03-10T00:48:51.343Z,11.36
2019-03-10T00:49:51.422Z,11.38
2019-03-10T00:50:51.436Z,11.44
2019-03-10T00:51:51.475Z,11.44
2019-03-10T00:52:51.529Z,11.46
2019-03-10T00:53:51.573Z,11.50
2019-03-10T00:54:51.635Z,11.54
2019-03-10T00:55:51.683Z,11.47
2019-03-10T00:56:51.710Z,11.49
2019-03-10T00:57:51.793Z,11.54
2019-03-10T00:58:51.796Z,11.54
2019-03-10T00:59:51.843Z,11.50
2019-03-10T01:00:51.918Z,11.53
2019-03-10T01:01:52.010Z,11.52
2019-03-10T01:02:51.980Z,11.44
2019-03-10T01:03:52.053Z,11.32
2019-03-10T01:04:52.076Z,11.31
2019-03-10T01:05:52.140Z,11.34
2019-03-10T01:06:52.181Z,11.21
2019-03-10T01:07:52.215Z,11.13
2019-03-10T01:08:52.365Z,11.07
2019-03-10T01:09:52.306Z,11.01
2019-03-10T01:10:52.388Z,10.86
2019-03-10T01:11:52.424Z,10.77
2019-03-10T01:12:52.444Z,10.66
2019-03-10T01:13:52.493Z,10.60
2019-03-10T01:14:52.541Z,10.60
2019-03-10T01:15:52.582Z,10.53
2019-03-10T01:16:52.646Z,10.40
2019-03-10T01:17:52.678Z,10.28
2019-03-10T01:18:52.720Z,10.25
2019-03-10T01:19:52.763Z,10.15
2019-03-10T01:20:52.814Z,10.18
2019-03-10T01:21:52.883Z,10.15
2019-03-10T01:22:52.907Z,10.15
2019-03-10T01:23:52.955Z,10.15
2019-03-10T01:24:52.998Z,10.15
2019-03-10T01:25:53.042Z,10.17
2019-03-10T01:26:53.103Z,10.17
2019-03-10T01:27:53.157Z,10.22
2019-03-10T01:28:53.190Z,10.33
2019-03-10T01:29:53.223Z,10.14
2019-03-10T01:30:53.274Z,10.07
2019-03-10T01:31:53.328Z,10.15
2019-03-10T01:32:53.390Z,10.10
2019-03-10T01:33:53.433Z,10.07
2019-03-10T01:34:53.459Z,10.03
2019-03-10T01:35:53.505Z,10.03
2019-03-10T01:36:53.545Z,10.01
2019-03-10T01:37:53.614Z,10.15
2019-03-10T01:38:53.644Z,10.17
2019-03-10T01:39:53.686Z,10.18
2019-03-10T01:40:53.796Z,10.15
2019-03-10T01:41:53.780Z,10.15
2019-03-10T01:42:53.840Z,10.22
2019-03-10T01:43:53.870Z,10.26
2019-03-10T01:44:53.910Z,10.32
2019-03-10T01:45:53.953Z,10.32
2019-03-10T01:46:54.000Z,10.33
2019-03-10T01:47:54.073Z,10.25
2019-03-10T01:48:54.096Z,10.17
2019-03-10T01:49:54.140Z,10.17
2019-03-10T01:50:54.200Z,10.14
2019-03-10T01:51:54.244Z,10.15
2019-03-10T01:52:54.323Z,10.04
2019-03-10T01:53:54.319Z,10.00
2019-03-10T01:54:54.382Z,9.91
2019-03-10T01:55:54.409Z,9.94
2019-03-10T01:56:54.494Z,9.88
2019-03-10T01:57:54.522Z,9.96
2019-03-10T01:58:54.574Z,9.96
2019-03-10T01:59:54.599Z,9.94
2019-03-10T02:00:54.650Z,10.01
2019-03-10T02:01:54.699Z,9.86
2019-03-10T02:02:54.735Z,9.94
2019-03-10T02:03:54.795Z,9.91
2019-03-10T02:04:54.830Z,9.89
2019-03-10T02:05:54.870Z,9.89
2019-03-10T02:06:54.927Z,10.01
2019-03-10T02:07:54.957Z,10.06
2019-03-10T02:08:55.028Z,10.09
2019-03-10T02:09:55.054Z,9.94
2019-03-10T02:10:55.094Z,9.97
2019-03-10T02:11:55.141Z,9.82
2019-03-10T02:12:55.186Z,9.86
2019-03-10T02:13:55.253Z,9.88
2019-03-10T02:14:55.277Z,9.85
2019-03-10T02:15:55.319Z,9.83
2019-03-10T02:16:55.367Z,9.83
2019-03-10T02:17:55.425Z,9.83
2019-03-10T02:18:55.476Z,9.83
2019-03-10T02:19:55.505Z,9.88
2019-03-10T02:20:55.551Z,9.83
2019-03-10T02:21:55.599Z,9.73
2019-03-10T02:22:55.645Z,9.71
2019-03-10T02:23:55.707Z,9.58
2019-03-10T02:24:55.733Z,9.56
2019-03-10T02:25:55.778Z,9.60
2019-03-10T02:26:55.819Z,9.53
2019-03-10T02:27:55.864Z,9.50
2019-03-10T02:28:56.067Z,9.52
2019-03-10T02:29:55.962Z,9.49
2019-03-10T02:30:56.003Z,9.46
2019-03-10T02:31:56.049Z,9.46
2019-03-10T02:32:56.101Z,9.49
2019-03-10T02:33:56.156Z,9.53
2019-03-10T02:34:56.179Z,9.58
2019-03-10T02:35:56.363Z,9.61
2019-03-10T02:36:56.271Z,9.68
2019-03-10T02:37:56.318Z,9.67
2019-03-10T02:38:56.382Z,9.68
2019-03-10T02:39:56.429Z,9.70
2019-03-10T02:40:56.452Z,9.61
2019-03-10T02:41:56.501Z,9.66
2019-03-10T02:42:56.548Z,9.60
2019-03-10T02:43:56.595Z,9.57
2019-03-10T02:44:56.661Z,9.58
2019-03-10T02:45:56.681Z,9.58
2019-03-10T02:46:56.725Z,9.60
2019-03-10T02:47:56.776Z,9.58
2019-03-10T02:48:56.813Z,9.56
2019-03-10T02:49:56.962Z,9.58
2019-03-10T02:50:56.909Z,9.60
2019-03-10T02:51:56.953Z,9.50
2019-03-10T02:52:56.997Z,9.50
2019-03-10T02:53:57.051Z,9.46
2019-03-10T02:54:57.121Z,9.50
2019-03-10T02:55:57.159Z,9.86
2019-03-10T02:56:57.206Z,10.01
2019-03-10T02:57:57.231Z,10.12
2019-03-10T02:58:57.281Z,10.28
2019-03-10T02:59:57.316Z,10.25
2019-03-10T03:00:57.384Z,10.15
2019-03-10T03:01:57.418Z,10.19
2019-03-10T03:02:57.452Z,10.06
2019-03-10T03:03:57.504Z,9.91
2019-03-10T03:04:57.546Z,9.94
2019-03-10T03:05:57.608Z,9.94
2019-03-10T03:06:57.630Z,9.82
2019-03-10T03:07:57.769Z,9.71
2019-03-10T03:08:57.723Z,9.58
2019-03-10T03:09:57.779Z,9.57
2019-03-10T03:10:57.835Z,9.49
2019-03-10T03:11:57.869Z,9.32
2019-03-10T03:12:57.910Z,9.38
2019-03-10T03:13:57.948Z,9.30
2019-03-10T03:14:57.999Z,9.28
2019-03-10T03:15:58.056Z,9.21
2019-03-10T03:16:58.094Z,9.18
2019-03-10T03:17:58.145Z,9.21
2019-03-10T03:18:58.261Z,9.21
2019-03-10T03:19:58.228Z,9.18
2019-03-10T03:20:58.289Z,9.18
2019-03-10T03:21:58.333Z,9.12
2019-03-10T03:22:58.357Z,9.09
2019-03-10T03:23:58.407Z,9.04
2019-03-10T03:24:58.455Z,9.02
2019-03-10T03:25:58.592Z,9.02
2019-03-10T03:26:58.541Z,9.05
2019-03-10T03:27:58.585Z,8.96
2019-03-10T03:28:58.630Z,8.91
2019-03-10T03:29:58.677Z,8.86
2019-03-10T03:30:58.741Z,8.87
2019-03-10T03:31:58.785Z,8.87
2019-03-10T03:32:58.833Z,8.83
2019-03-10T03:33:59.010Z,8.88
2019-03-10T03:34:58.909Z,8.75
2019-03-10T03:35:58.943Z,8.68
2019-03-10T03:36:59.021Z,8.76
2019-03-10T03:37:59.032Z,8.78
2019-03-10T03:38:59.082Z,8.71
2019-03-10T03:39:59.124Z,8.83
2019-03-10T03:40:59.200Z,8.72
2019-03-10T03:41:59.279Z,8.65
2019-03-10T03:42:59.297Z,8.63
2019-03-10T03:43:59.304Z,8.66
2019-03-10T03:44:59.355Z,8.60
2019-03-10T03:45:59.400Z,8.62
2019-03-10T03:46:59.457Z,8.63
2019-03-10T03:47:59.483Z,8.63
2019-03-10T03:48:59.536Z,8.55
2019-03-10T03:49:59.576Z,8.54
2019-03-10T03:50:59.619Z,8.55
2019-03-10T03:51:59.689Z,8.51
2019-03-10T03:52:59.711Z,8.44
2019-03-10T03:53:59.758Z,8.48
2019-03-10T03:54:59.805Z,8.42
2019-03-10T03:55:59.917Z,8.47
2019-03-10T03:56:59.911Z,8.35
2019-03-10T03:57:59.941Z,8.42
2019-03-10T03:58:59.980Z,8.45
2019-03-10T04:00:00.020Z,8.39
2019-03-10T04:01:00.069Z,8.45
2019-03-10T04:02:00.133Z,8.44
2019-03-10T04:03:00.157Z,8.40
2019-03-10T04:04:00.202Z,8.47
2019-03-10T04:05:00.494Z,8.45
2019-03-10T04:06:00.293Z,8.45
2019-03-10T04:07:00.362Z,8.32
2019-03-10T04:08:00.384Z,8.42
2019-03-10T04:09:00.426Z,8.45
2019-03-10T04:10:00.556Z,8.40
2019-03-10T04:11:00.514Z,8.42
2019-03-10T04:12:00.697Z,8.44
2019-03-10T04:13:00.604Z,8.42
2019-03-10T04:14:00.676Z,8.36
2019-03-10T04:15:00.690Z,8.44
2019-03-10T04:16:00.741Z,8.44
2019-03-10T04:17:00.859Z,8.44
2019-03-10T04:18:00.827Z,8.48
2019-03-10T04:19:00.890Z,8.40
2019-03-10T04:20:00.928Z,8.45
2019-03-10T04:21:00.967Z,8.45
2019-03-10T04:22:01.005Z,8.45
2019-03-10T04:23:01.065Z,8.37
2019-03-10T04:24:01.128Z,8.37
2019-03-10T04:25:01.144Z,8.45
2019-03-10T04:26:01.183Z,8.32
2019-03-10T04:27:01.226Z,8.37
2019-03-10T04:28:01.268Z,8.45
2019-03-10T04:29:01.339Z,8.47
2019-03-10T04:30:01.372Z,8.40
2019-03-10T04:31:01.400Z,8.40
2019-03-10T04:32:01.453Z,8.47
2019-03-10T04:33:01.488Z,8.42
2019-03-10T04:34:01.552Z,8.42
2019-03-10T04:35:01.578Z,8.44
2019-03-10T04:36:01.620Z,8.40
2019-03-10T04:37:01.669Z,8.40
2019-03-10T04:38:01.715Z,8.35
2019-03-10T04:39:01.775Z,8.37
2019-03-10T04:40:01.805Z,8.36
2019-03-10T04:41:01.843Z,8.40
2019-03-10T04:42:01.887Z,8.32
2019-03-10T04:43:01.951Z,8.37
2019-03-10T04:44:01.978Z,8.48
2019-03-10T04:45:02.021Z,8.42
2019-03-10T04:46:02.064Z,8.44
2019-03-10T04:47:02.111Z,8.44
2019-03-10T04:48:02.196Z,8.47
2019-03-10T04:49:02.196Z,8.58
2019-03-10T04:50:02.257Z,8.62
2019-03-10T04:51:02.292Z,8.63
2019-03-10T04:52:02.334Z,8.73
2019-03-10T04:53:02.398Z,8.72
2019-03-10T04:54:02.418Z,8.79
2019-03-10T04:55:02.497Z,8.73
2019-03-10T04:56:02.509Z,8.71
2019-03-10T04:57:02.557Z,8.76
2019-03-10T04:58:02.595Z,8.81
2019-03-10T04:59:02.664Z,8.83
2019-03-10T05:00:02.690Z,8.84
2019-03-10T05:01:02.742Z,8.81
2019-03-10T05:02:02.780Z,8.91
2019-03-10T05:03:02.820Z,8.97
2019-03-10T05:04:02.884Z,9.01
2019-03-10T05:05:02.910Z,9.13
2019-03-10T05:06:02.977Z,9.34
2019-03-10T05:07:02.995Z,9.39
2019-03-10T05:08:03.041Z,9.48
2019-03-10T05:09:03.117Z,9.75
2019-03-10T05:10:03.135Z,9.88
2019-03-10T05:11:03.179Z,9.91
2019-03-10T05:12:03.220Z,9.88
2019-03-10T05:13:03.265Z,9.83
2019-03-10T05:14:03.329Z,9.88
2019-03-10T05:15:03.378Z,9.99
2019-03-10T05:16:03.463Z,9.88
2019-03-10T05:17:03.443Z,9.81
2019-03-10T05:18:03.491Z,9.81
2019-03-10T05:19:03.536Z,9.81
2019-03-10T05:20:03.611Z,9.64
2019-03-10T05:21:03.623Z,9.56
2019-03-10T05:22:03.669Z,9.57
2019-03-10T05:23:03.721Z,9.45
2019-03-10T05:24:03.762Z,9.31
2019-03-10T05:25:03.829Z,9.27
2019-03-10T05:26:03.865Z,9.20
2019-03-10T05:27:03.892Z,9.12
2019-03-10T05:28:03.941Z,9.02
2019-03-10T05:29:03.980Z,8.96
2019-03-10T05:30:04.048Z,8.87
2019-03-10T05:31:04.075Z,8.90
2019-03-10T05:32:04.118Z,8.96
2019-03-10T05:33:04.167Z,8.91
2019-03-10T05:34:04.206Z,8.91
2019-03-10T05:35:04.275Z,8.99
2019-03-10T05:36:04.300Z,8.90
2019-03-10T05:37:04.344Z,8.88
2019-03-10T05:38:04.391Z,8.86
2019-03-10T05:39:04.439Z,8.83
2019-03-10T05:40:04.494Z,8.90
2019-03-10T05:41:04.548Z,8.88
2019-03-10T05:42:04.567Z,8.84
2019-03-10T05:43:04.614Z,8.91
2019-03-10T05:44:04.664Z,8.81
2019-03-10T05:45:04.701Z,8.88
2019-03-10T05:46:04.765Z,8.79
2019-03-10T05:47:04.791Z,8.75
2019-03-10T05:48:04.973Z,8.66
2019-03-10T05:49:04.883Z,8.66
2019-03-10T05:50:04.931Z,8.63
2019-03-10T05:51:04.986Z,8.65
2019-03-10T05:52:05.016Z,8.60
2019-03-10T05:53:05.066Z,8.62
2019-03-10T05:54:05.105Z,8.54
2019-03-10T05:55:05.206Z,8.63
2019-03-10T05:56:05.217Z,8.68
2019-03-10T05:57:05.249Z,8.66
2019-03-10T05:58:05.287Z,8.66
2019-03-10T05:59:05.331Z,8.71
2019-03-10T06:00:05.374Z,8.72
2019-03-10T06:01:05.442Z,8.78
2019-03-10T06:02:05.483Z,8.71
2019-03-10T06:03:05.511Z,8.73
2019-03-10T06:04:05.572Z,8.81
2019-03-10T06:05:06.218Z,8.76
2019-03-10T06:06:05.647Z,8.84
2019-03-10T06:07:05.712Z,8.81
2019-03-10T06:08:05.736Z,8.76
2019-03-10T06:09:05.786Z,8.73
2019-03-10T06:10:05.826Z,8.66
2019-03-10T06:11:05.909Z,8.72
2019-03-10T06:12:05.938Z,8.76
2019-03-10T06:13:05.960Z,8.72
2019-03-10T06:14:06.006Z,8.75
2019-03-10T06:15:06.068Z,8.84
2019-03-10T06:16:06.095Z,8.81
2019-03-10T06:17:06.181Z,8.81
2019-03-10T06:18:13.650Z,8.81
2019-03-10T06:19:06.236Z,8.86
2019-03-10T06:20:06.273Z,8.86
2019-03-10T06:21:06.320Z,8.84
2019-03-10T06:22:06.514Z,8.93
2019-03-10T06:23:06.410Z,8.90
2019-03-10T06:24:06.458Z,8.94
2019-03-10T06:25:06.515Z,8.94
2019-03-10T06:26:06.549Z,8.93
2019-03-10T06:27:06.612Z,8.96
2019-03-10T06:28:06.634Z,8.91
2019-03-10T06:29:06.679Z,8.91
2019-03-10T06:30:06.724Z,9.04
2019-03-10T06:31:06.774Z,9.04
2019-03-10T06:32:06.840Z,9.06
2019-03-10T06:33:06.868Z,9.04
2019-03-10T06:34:06.905Z,9.09
2019-03-10T06:35:06.949Z,9.13
2019-03-10T06:36:07.081Z,9.15
2019-03-10T06:37:07.063Z,9.15
2019-03-10T06:38:07.121Z,9.18
2019-03-10T06:39:07.132Z,9.13
2019-03-10T06:40:07.187Z,9.16
2019-03-10T06:41:07.235Z,9.09
2019-03-10T06:42:07.269Z,9.18
2019-03-10T06:43:07.349Z,9.13
2019-03-10T06:44:07.362Z,9.24
2019-03-10T06:45:07.430Z,9.21
2019-03-10T06:46:07.447Z,9.16
2019-03-10T06:47:07.514Z,9.16
2019-03-10T06:48:07.566Z,9.13
2019-03-10T06:49:07.584Z,9.23
2019-03-10T06:50:07.635Z,9.12
2019-03-10T06:51:07.683Z,9.13
2019-03-10T06:52:07.727Z,9.15
2019-03-10T06:53:07.789Z,9.15
2019-03-10T06:54:07.822Z,9.15
2019-03-10T06:55:07.861Z,9.10
2019-03-10T06:56:07.897Z,9.09
2019-03-10T06:57:07.958Z,9.15
2019-03-10T06:58:08.016Z,9.16
2019-03-10T06:59:08.058Z,9.20
2019-03-10T07:00:08.082Z,9.09
2019-03-10T07:01:08.225Z,9.16
2019-03-10T07:02:08.171Z,9.18
2019-03-10T07:03:08.217Z,9.23
2019-03-10T07:04:08.287Z,9.25
2019-03-10T07:05:08.309Z,9.23
2019-03-10T07:06:08.354Z,9.20
2019-03-10T07:07:08.400Z,9.21
2019-03-10T07:08:08.513Z,9.16
2019-03-10T07:09:08.518Z,9.20
2019-03-10T07:10:08.534Z,9.20
2019-03-10T07:11:08.579Z,9.18
2019-03-10T07:12:08.625Z,9.23
2019-03-10T07:13:08.687Z,9.25
2019-03-10T07:14:08.752Z,9.20
2019-03-10T07:15:08.801Z,9.32
2019-03-10T07:16:08.815Z,9.34
2019-03-10T07:17:08.859Z,9.32
2019-03-10T07:18:08.900Z,9.38
2019-03-10T07:19:08.969Z,9.40
2019-03-10T07:20:08.987Z,9.52
2019-03-10T07:21:09.035Z,9.48
2019-03-10T07:22:09.076Z,9.46
2019-03-10T07:23:09.125Z,9.49
2019-03-10T07:24:09.196Z,9.53
2019-03-10T07:25:09.215Z,9.63
2019-03-10T07:26:09.259Z,9.57
2019-03-10T07:27:09.311Z,9.70
2019-03-10T07:28:09.356Z,9.75
2019-03-10T07:29:09.418Z,9.71
2019-03-10T07:30:09.454Z,9.71
2019-03-10T07:31:09.497Z,9.81
2019-03-10T07:32:09.532Z,9.75
2019-03-10T07:33:09.584Z,9.79
2019-03-10T07:34:09.663Z,9.83
2019-03-10T07:35:09.779Z,9.86
2019-03-10T07:36:09.725Z,9.83
2019-03-10T07:37:09.767Z,9.86
2019-03-10T07:38:09.812Z,9.83
2019-03-10T07:39:09.874Z,9.91
2019-03-10T07:40:09.937Z,9.81
2019-03-10T07:41:09.945Z,9.85
2019-03-10T07:42:10.080Z,9.89
2019-03-10T07:43:10.040Z,9.88
2019-03-10T07:44:10.082Z,9.91
2019-03-10T07:45:10.162Z,10.00
2019-03-10T07:46:10.172Z,10.04
2019-03-10T07:47:10.230Z,10.03
2019-03-10T07:48:10.297Z,10.04
2019-03-10T07:49:10.359Z,10.17
2019-03-10T07:50:10.388Z,10.06
2019-03-10T07:51:10.424Z,10.12
2019-03-10T07:52:19.759Z,10.09
2019-03-10T07:53:10.489Z,10.14
2019-03-10T07:54:10.554Z,10.14
2019-03-10T07:55:10.603Z,10.21
2019-03-10T07:56:11.514Z,10.28
2019-03-10T07:57:10.678Z,10.30
2019-03-10T07:58:10.730Z,10.30
2019-03-10T07:59:10.779Z,10.39
2019-03-10T08:00:10.818Z,10.39
2019-03-10T08:01:10.878Z,10.42
2019-03-10T08:02:10.905Z,10.42
2019-03-10T08:03:10.949Z,10.52
2019-03-10T08:04:11.042Z,10.55
2019-03-10T08:05:11.046Z,10.59
2019-03-10T08:06:11.106Z,10.62
2019-03-10T08:07:11.134Z,10.63
2019-03-10T08:08:11.183Z,10.68
2019-03-10T08:09:11.238Z,10.76
2019-03-10T08:10:11.271Z,10.83
2019-03-10T08:11:11.349Z,10.78
2019-03-10T08:12:11.363Z,10.86
2019-03-10T08:13:11.411Z,10.83
2019-03-10T08:14:11.592Z,10.80
2019-03-10T08:15:11.503Z,10.83
2019-03-10T08:16:11.594Z,10.95
2019-03-10T08:17:11.587Z,10.94
2019-03-10T08:18:11.636Z,10.95
2019-03-10T08:19:11.693Z,11.01
2019-03-10T08:20:11.736Z,11.11
2019-03-10T08:21:11.871Z,11.21
2019-03-10T08:22:11.863Z,11.27
2019-03-10T08:23:11.869Z,11.44
2019-03-10T08:24:11.928Z,11.46
2019-03-10T08:25:11.965Z,11.53
2019-03-10T08:26:12.006Z,11.59
2019-03-10T08:27:12.073Z,11.62
2019-03-10T08:28:12.169Z,11.59
2019-03-10T08:29:12.141Z,11.59
2019-03-10T08:30:12.190Z,11.59
2019-03-10T08:31:12.243Z,11.59
2019-03-10T08:32:12.344Z,11.53
2019-03-10T08:33:12.391Z,11.56
2019-03-10T08:34:12.380Z,11.71
2019-03-10T08:35:12.435Z,11.74
2019-03-10T08:36:13.763Z,11.80
2019-03-10T08:37:12.539Z,11.71
2019-03-10T08:38:12.594Z,11.78
2019-03-10T08:39:12.711Z,11.71
2019-03-10T08:40:12.662Z,11.67
2019-03-10T08:41:12.714Z,11.57
2019-03-10T08:42:20.274Z,11.57
2019-03-10T08:43:12.815Z,11.53
2019-03-10T08:44:12.841Z,11.53
2019-03-10T08:45:12.885Z,11.67
2019-03-10T08:46:12.934Z,11.59
2019-03-10T08:47:12.997Z,11.54
2019-03-10T08:48:13.043Z,11.54
2019-03-10T08:49:13.073Z,11.53
2019-03-10T08:50:13.121Z,11.54
2019-03-10T08:51:13.159Z,11.57
2019-03-10T08:52:13.211Z,11.59
2019-03-10T08:53:13.286Z,11.53
2019-03-10T08:54:13.304Z,11.50
2019-03-10T08:55:13.356Z,11.50
2019-03-10T08:56:13.400Z,11.56
2019-03-10T08:57:13.438Z,11.46
2019-03-10T08:58:13.514Z,11.54
2019-03-10T08:59:13.529Z,11.52
2019-03-10T09:00:13.581Z,11.53
2019-03-10T09:01:13.627Z,11.41
2019-03-10T09:02:13.667Z,11.41
2019-03-10T09:03:13.756Z,11.46
2019-03-10T09:04:13.760Z,11.43
2019-03-10T09:05:13.813Z,11.43
2019-03-10T09:06:13.855Z,11.41
2019-03-10T09:07:13.915Z,11.29
2019-03-10T09:08:13.999Z,11.28
2019-03-10T09:09:14.031Z,11.35
2019-03-10T09:10:14.045Z,11.46
2019-03-10T09:11:14.097Z,11.50
2019-03-10T09:12:14.133Z,11.49
2019-03-10T09:13:14.178Z,11.47
2019-03-10T09:14:14.249Z,11.47
2019-03-10T09:15:14.270Z,11.46
2019-03-10T09:16:14.319Z,11.41
2019-03-10T09:17:14.366Z,11.35
2019-03-10T09:18:14.414Z,11.31
2019-03-10T09:19:14.496Z,11.31
2019-03-10T09:20:14.508Z,11.31
2019-03-10T09:21:14.558Z,11.34
2019-03-10T09:22:14.598Z,11.25
2019-03-10T09:23:14.674Z,11.20
2019-03-10T09:24:14.710Z,11.21
2019-03-10T09:25:14.731Z,11.17
2019-03-10T09:26:14.785Z,11.19
2019-03-10T09:27:14.826Z,11.14
2019-03-10T09:28:14.872Z,11.14
2019-03-10T09:29:14.948Z,11.13
2019-03-10T09:30:14.966Z,10.99
2019-03-10T09:31:15.026Z,11.01
2019-03-10T09:32:15.080Z,10.98
2019-03-10T09:33:15.111Z,11.01
2019-03-10T09:34:15.277Z,10.98
2019-03-10T09:35:15.218Z,11.02
2019-03-10T09:36:15.244Z,11.01
2019-03-10T09:37:15.288Z,10.94
2019-03-10T09:38:15.340Z,10.84
2019-03-10T09:39:15.388Z,10.89
2019-03-10T09:40:15.445Z,10.84
2019-03-10T09:41:15.607Z,10.76
2019-03-10T09:42:15.524Z,10.74
2019-03-10T09:43:15.577Z,10.83
2019-03-10T09:44:15.618Z,10.70
2019-03-10T09:45:15.686Z,10.80
2019-03-10T09:46:15.701Z,10.78
2019-03-10T09:47:15.756Z,10.70
2019-03-10T09:48:15.804Z,10.62
2019-03-10T09:49:15.845Z,10.62
2019-03-10T09:50:15.956Z,10.55
2019-03-10T09:51:15.936Z,10.51
2019-03-10T09:52:15.983Z,10.63
2019-03-10T09:53:16.023Z,10.59
2019-03-10T09:54:16.087Z,10.60
2019-03-10T09:55:16.139Z,10.52
2019-03-10T09:56:16.165Z,10.44
2019-03-10T09:57:16.269Z,10.44
2019-03-10T09:58:16.286Z,10.42
2019-03-10T09:59:16.315Z,10.46
2019-03-10T10:00:16.379Z,10.46
2019-03-10T10:01:16.400Z,10.46
2019-03-10T10:02:16.446Z,10.53
2019-03-10T10:03:16.485Z,10.52
2019-03-10T10:04:16.630Z,10.46
2019-03-10T10:05:16.609Z,10.52
2019-03-10T10:06:16.649Z,10.43
2019-03-10T10:07:16.668Z,10.43
2019-03-10T10:08:16.715Z,10.47
2019-03-10T10:09:16.782Z,10.53
2019-03-10T10:10:16.812Z,10.60
2019-03-10T10:11:16.956Z,10.59
2019-03-10T10:12:16.899Z,10.78
2019-03-10T10:13:16.961Z,10.84
2019-03-10T10:14:16.998Z,10.88
2019-03-10T10:15:17.040Z,10.94
2019-03-10T10:16:17.145Z,10.95
2019-03-10T10:17:17.140Z,10.99
2019-03-10T10:18:17.180Z,10.98
2019-03-10T10:19:17.242Z,10.98
2019-03-10T10:20:17.271Z,10.96
2019-03-10T10:21:17.355Z,11.01
2019-03-10T10:22:17.371Z,10.98
2019-03-10T10:23:17.423Z,11.02
2019-03-10T10:24:17.512Z,11.09
2019-03-10T10:25:17.533Z,11.10
2019-03-10T10:26:17.573Z,11.07
2019-03-10T10:27:19.989Z,11.03
2019-03-10T10:28:17.653Z,11.06
2019-03-10T10:29:17.712Z,11.02
2019-03-10T10:30:17.743Z,11.09
2019-03-10T10:31:17.789Z,11.17
2019-03-10T10:32:17.867Z,11.21
2019-03-10T10:33:17.883Z,11.19
2019-03-10T10:34:17.927Z,11.32
2019-03-10T10:35:17.963Z,11.38
2019-03-10T10:36:18.013Z,11.39
2019-03-10T10:37:18.088Z,11.50
2019-03-10T10:38:19.143Z,11.49
2019-03-10T10:39:18.155Z,11.53
2019-03-10T10:40:18.204Z,11.59
2019-03-10T10:41:18.241Z,11.56
2019-03-10T10:42:18.364Z,11.62
2019-03-10T10:43:18.343Z,11.67
2019-03-10T10:44:18.394Z,11.68
2019-03-10T10:45:18.439Z,11.65
2019-03-10T10:46:18.476Z,11.68
2019-03-10T10:47:18.554Z,11.72
2019-03-10T10:48:18.577Z,11.74
2019-03-10T10:49:18.634Z,11.83
2019-03-10T10:50:18.675Z,11.75
2019-03-10T10:51:18.713Z,11.85
2019-03-10T10:52:18.798Z,11.93
2019-03-10T10:53:21.391Z,11.99
2019-03-10T10:54:18.847Z,11.99
2019-03-10T10:55:18.919Z,11.85
2019-03-10T10:56:18.982Z,11.96
2019-03-10T10:57:19.038Z,11.89
2019-03-10T10:58:19.057Z,12.02
2019-03-10T10:59:19.107Z,11.97
2019-03-10T11:00:19.148Z,11.96
2019-03-10T11:01:19.184Z,11.96
2019-03-10T11:02:19.256Z,12.08
2019-03-10T11:03:19.315Z,12.08
2019-03-10T11:04:19.331Z,12.05
2019-03-10T11:05:19.367Z,12.04
2019-03-10T11:06:19.918Z,12.11
2019-03-10T11:07:19.468Z,12.12
2019-03-10T11:08:20.074Z,12.11
2019-03-10T11:09:19.581Z,12.09
2019-03-10T11:10:19.613Z,12.12
2019-03-10T11:11:19.661Z,12.27
2019-03-10T11:12:19.707Z,12.27
2019-03-10T11:13:19.788Z,12.26
2019-03-10T11:14:19.811Z,12.41
2019-03-10T11:15:19.852Z,12.44
2019-03-10T11:16:19.887Z,12.52
2019-03-10T11:17:20.035Z,12.54
2019-03-10T11:18:19.999Z,12.54
2019-03-10T11:19:20.060Z,12.66
2019-03-10T11:20:20.087Z,12.71
2019-03-10T11:21:20.130Z,12.79
2019-03-10T11:22:20.180Z,12.99
2019-03-10T11:23:20.237Z,12.92
2019-03-10T11:24:20.402Z,13.03
2019-03-10T11:25:20.320Z,13.04
2019-03-10T11:26:20.364Z,13.00
2019-03-10T11:27:20.414Z,12.99
2019-03-10T11:28:20.488Z,13.02
2019-03-10T11:29:20.514Z,12.92
2019-03-10T11:30:20.589Z,13.03
2019-03-10T11:31:20.657Z,13.02
2019-03-10T11:32:20.660Z,13.06
2019-03-10T11:33:20.701Z,13.12
2019-03-10T11:34:20.761Z,13.11
2019-03-10T11:35:20.817Z,13.06
2019-03-10T11:36:20.837Z,13.11
2019-03-10T11:37:20.884Z,13.15
2019-03-10T11:38:20.943Z,13.09
2019-03-10T11:39:21.026Z,13.04
2019-03-10T11:40:21.063Z,13.03
2019-03-10T11:41:21.078Z,13.04
2019-03-10T11:42:21.140Z,12.93
2019-03-10T11:43:22.843Z,13.00
2019-03-10T11:44:21.247Z,12.96
2019-03-10T11:45:21.273Z,12.95
2019-03-10T11:46:21.325Z,12.97
2019-03-10T11:47:21.377Z,12.95
2019-03-10T11:48:21.417Z,13.00
2019-03-10T11:49:21.493Z,13.02
2019-03-10T11:50:21.503Z,13.00
2019-03-10T11:51:21.578Z,13.02
2019-03-10T11:52:21.598Z,12.95
2019-03-10T11:53:21.655Z,12.77
2019-03-10T11:54:21.736Z,12.84
2019-03-10T11:55:21.896Z,12.88
2019-03-10T11:56:21.799Z,12.79
2019-03-10T11:57:21.837Z,12.78
2019-03-10T11:58:21.887Z,12.77
2019-03-10T11:59:21.932Z,12.79
2019-03-10T12:00:22.010Z,12.78
2019-03-10T12:01:22.068Z,12.74
2019-03-10T12:02:22.077Z,12.74
2019-03-10T12:03:22.124Z,12.63
2019-03-10T12:04:22.173Z,12.62
2019-03-10T12:05:22.247Z,12.64
2019-03-10T12:06:22.269Z,12.63
2019-03-10T12:07:22.332Z,12.63
2019-03-10T12:08:22.438Z,12.64
2019-03-10T12:09:22.413Z,12.74
2019-03-10T12:10:22.493Z,12.96
2019-03-10T12:11:22.516Z,12.99
2019-03-10T12:12:22.555Z,13.02
2019-03-10T12:13:22.599Z,13.09
2019-03-10T12:14:22.672Z,13.21
2019-03-10T12:15:22.786Z,13.24
2019-03-10T12:16:22.759Z,13.20
2019-03-10T12:17:22.811Z,13.24
2019-03-10T12:18:22.840Z,13.21
2019-03-10T12:19:22.891Z,13.22
2019-03-10T12:20:22.957Z,13.27
2019-03-10T12:21:22.987Z,13.47
2019-03-10T12:22:23.033Z,13.54
2019-03-10T12:23:23.133Z,13.54
2019-03-10T12:24:23.132Z,13.55
2019-03-10T12:25:23.208Z,13.62
2019-03-10T12:26:23.263Z,13.69
2019-03-10T12:27:23.272Z,13.71
2019-03-10T12:28:23.336Z,13.69
2019-03-10T12:29:23.398Z,13.71
2019-03-10T12:30:23.478Z,13.67
2019-03-10T12:31:23.488Z,13.67
2019-03-10T12:32:23.544Z,13.65
2019-03-10T12:33:23.563Z,13.59
2019-03-10T12:34:23.611Z,13.62
2019-03-10T12:35:33.569Z,13.51
2019-03-10T12:36:23.742Z,13.56
2019-03-10T12:37:23.779Z,13.69
2019-03-10T12:38:23.812Z,13.69
2019-03-10T12:39:23.896Z,13.80
2019-03-10T12:40:23.899Z,13.79
2019-03-10T12:41:23.998Z,13.83
2019-03-10T12:42:23.995Z,13.99
2019-03-10T12:43:24.051Z,13.98
2019-03-10T12:44:24.092Z,13.96
2019-03-10T12:45:24.165Z,13.98
2019-03-10T12:46:24.231Z,14.07
2019-03-10T12:47:24.235Z,14.16
2019-03-10T12:48:24.307Z,14.35
2019-03-10T12:49:24.355Z,14.47
2019-03-10T12:50:24.394Z,14.37
2019-03-10T12:51:24.445Z,14.20
2019-03-10T12:52:24.477Z,14.31
2019-03-10T12:53:24.536Z,14.21
2019-03-10T12:54:24.595Z,14.21
2019-03-10T12:55:24.654Z,14.34
2019-03-10T12:56:24.693Z,14.38
2019-03-10T12:57:24.747Z,14.38
2019-03-10T12:58:24.778Z,14.56
2019-03-10T12:59:24.820Z,15.11
2019-03-10T13:00:24.868Z,15.41
2019-03-10T13:01:24.933Z,15.61
2019-03-10T13:02:25.095Z,15.88
2019-03-10T13:03:25.025Z,16.07
2019-03-10T13:04:25.081Z,16.18